TimePDT,TemperatureF,Dew PointF,Humidity,Sea Level PressureIn,VisibilityMPH,Wind Direction,Wind SpeedMPH,Gust SpeedMPH,PrecipitationIn,Events,Conditions,WindDirDegrees,DateUTC
12:53 AM,37.0,34.0,89,-9999,10.0,Calm,Calm,-,N/A,,Clear,0,2013-10-13 07:53:00
1:53 AM,36.0,34.0,93,-9999,9.0,Calm,Calm,-,N/A,,Clear,0,2013-10-13 08:53:00
2:50 AM,35.6,33.8,93,-9999,4.0,Calm,Calm,-,N/A,,Partly Cloudy,0,2013-10-13 09:50:00
2:53 AM,35.1,33.1,92,-9999,4.0,Calm,Calm,-,N/A,,Partly Cloudy,0,2013-10-13 09:53:00
3:15 AM,33.8,32.0,93,-9999,1.8,Calm,Calm,-,N/A,,Clear,0,2013-10-13 10:15:00
3:22 AM,33.8,32.0,93,-9999,3.0,Calm,Calm,-,N/A,,Clear,0,2013-10-13 10:22:00
3:29 AM,35.6,33.8,93,-9999,2.0,Calm,Calm,-,N/A,,Partly Cloudy,0,2013-10-13 10:29:00
3:36 AM,33.8,32.0,93,-9999,1.2,Calm,Calm,-,N/A,,Scattered Clouds,0,2013-10-13 10:36:00
3:53 AM,33.1,30.9,92,-9999,1.8,Calm,Calm,-,N/A,,Partly Cloudy,0,2013-10-13 10:53:00
3:55 AM,33.8,30.2,87,-9999,3.0,Calm,Calm,-,N/A,,Partly Cloudy,0,2013-10-13 10:55:00
3:59 AM,33.8,32.0,93,-9999,1.8,Calm,Calm,-,N/A,,Scattered Clouds,0,2013-10-13 10:59:00
4:07 AM,35.6,33.8,93,-9999,0.8,Calm,Calm,-,N/A,,Mist,0,2013-10-13 11:07:00
4:10 AM,33.8,33.8,100,-9999,1.2,Calm,Calm,-,N/A,,Partly Cloudy,0,2013-10-13 11:10:00
4:29 AM,33.8,32.0,93,-9999,1.0,Calm,Calm,-,N/A,,Mist,0,2013-10-13 11:29:00
4:42 AM,32.0,30.2,93,-9999,1.0,Calm,Calm,-,N/A,,Mist,0,2013-10-13 11:42:00
4:46 AM,33.8,32.0,93,-9999,2.0,Calm,Calm,-,N/A,,Scattered Clouds,0,2013-10-13 11:46:00
4:53 AM,33.1,32.0,96,-9999,7.0,Calm,Calm,-,N/A,,Scattered Clouds,0,2013-10-13 11:53:00
5:18 AM,33.8,32.0,93,-9999,1.5,Calm,Calm,-,N/A,,Scattered Clouds,0,2013-10-13 12:18:00
5:21 AM,33.8,32.0,93,-9999,0.8,Calm,Calm,-,N/A,,Mist,0,2013-10-13 12:21:00
5:28 AM,33.8,32.0,93,-9999,0.2,Calm,Calm,-,N/A,Fog,Fog,0,2013-10-13 12:28:00
5:35 AM,33.8,32.0,93,-9999,1.0,Calm,Calm,-,N/A,,Mist,0,2013-10-13 12:35:00
5:38 AM,33.8,32.0,93,30.19,3.0,Calm,Calm,-,N/A,,Scattered Clouds,0,2013-10-13 12:38:00
5:53 AM,32.0,30.9,96,30.25,10.0,Calm,Calm,-,N/A,,Clear,0,2013-10-13 12:53:00
6:53 AM,30.0,30.0,100,30.26,10.0,Calm,Calm,-,N/A,,Clear,0,2013-10-13 13:53:00
7:53 AM,30.9,30.0,96,30.27,10.0,Calm,Calm,-,N/A,,Clear,0,2013-10-13 14:53:00
8:00 AM,32.0,30.2,93,-9999,0.2,Calm,Calm,-,N/A,Fog,Fog,0,2013-10-13 15:00:00
8:17 AM,32.0,30.2,93,30.23,10.0,Calm,Calm,-,N/A,,Clear,0,2013-10-13 15:17:00
8:53 AM,35.1,33.1,92,30.30,10.0,Calm,Calm,-,N/A,,Clear,0,2013-10-13 15:53:00
9:53 AM,41.0,35.1,79,30.29,10.0,SSW,3.5,-,N/A,,Clear,210,2013-10-13 16:53:00
10:53 AM,44.6,35.1,69,30.30,10.0,Variable,3.5,-,N/A,,Clear,0,2013-10-13 17:53:00
11:53 AM,48.9,33.1,54,30.29,10.0,SW,4.6,-,N/A,,Clear,220,2013-10-13 18:53:00
12:53 PM,52.0,34.0,50,30.28,10.0,Variable,4.6,-,N/A,,Clear,0,2013-10-13 19:53:00
1:53 PM,54.0,32.0,43,30.25,10.0,Variable,5.8,-,N/A,,Clear,0,2013-10-13 20:53:00
2:53 PM,55.9,27.0,33,-9999,10.0,Calm,Calm,-,N/A,,Unknown,0,2013-10-13 21:53:00
3:53 PM,57.0,30.0,36,-9999,10.0,Calm,Calm,-,N/A,,Clear,0,2013-10-13 22:53:00
4:53 PM,55.9,34.0,44,-9999,10.0,Calm,Calm,-,N/A,,Clear,0,2013-10-13 23:53:00
5:53 PM,50.0,35.1,57,-9999,10.0,Calm,Calm,-,N/A,,Clear,0,2013-10-14 00:53:00
6:53 PM,44.1,33.1,65,-9999,10.0,Calm,Calm,-,N/A,,Unknown,0,2013-10-14 01:53:00
7:53 PM,42.1,33.1,70,30.29,10.0,Calm,Calm,-,N/A,,Clear,0,2013-10-14 02:53:00
8:53 PM,39.9,33.1,77,30.30,10.0,Calm,Calm,-,N/A,,Clear,0,2013-10-14 03:53:00
9:53 PM,37.9,34.0,86,30.31,10.0,Calm,Calm,-,N/A,,Clear,0,2013-10-14 04:53:00
10:53 PM,37.0,33.1,86,30.32,10.0,Calm,Calm,-,N/A,,Clear,0,2013-10-14 05:53:00